sensor_id;sensor_type;location;lat;lon;timestamp;P1;durP1;ratioP1;P2;durP2;ratioP2
8831;SDS011;4452;50.756;4.472;2022-11-04T00:01:45;11.07;;;2.15;;
8831;SDS011;4452;50.756;4.472;2022-11-04T00:04:12;11.48;;;2.60;;
8831;SDS011;4452;50.756;4.472;2022-11-04T00:06:40;9.25;;;2.20;;
8831;SDS011;4452;50.756;4.472;2022-11-04T00:09:07;9.32;;;2.17;;
8831;SDS011;4452;50.756;4.472;2022-11-04T00:11:34;14.70;;;3.95;;
8831;SDS011;4452;50.756;4.472;2022-11-04T00:14:19;6.88;;;2.03;;
8831;SDS011;4452;50.756;4.472;2022-11-04T00:16:45;11.38;;;2.15;;
8831;SDS011;4452;50.756;4.472;2022-11-04T00:19:29;8.90;;;1.63;;
8831;SDS011;4452;50.756;4.472;2022-11-04T00:22:18;8.10;;;2.20;;
8831;SDS011;4452;50.756;4.472;2022-11-04T00:25:03;6.25;;;2.10;;
8831;SDS011;4452;50.756;4.472;2022-11-04T00:27:47;10.25;;;2.35;;
8831;SDS011;4452;50.756;4.472;2022-11-04T00:30:31;8.23;;;2.03;;
8831;SDS011;4452;50.756;4.472;2022-11-04T00:32:57;8.00;;;2.60;;
8831;SDS011;4452;50.756;4.472;2022-11-04T00:35:47;12.85;;;2.85;;
8831;SDS011;4452;50.756;4.472;2022-11-04T00:38:13;8.30;;;2.63;;
8831;SDS011;4452;50.756;4.472;2022-11-04T00:40:39;10.15;;;2.50;;
8831;SDS011;4452;50.756;4.472;2022-11-04T00:43:05;14.43;;;3.30;;
8831;SDS011;4452;50.756;4.472;2022-11-04T00:45:30;6.15;;;2.40;;
8831;SDS011;4452;50.756;4.472;2022-11-04T00:47:56;11.00;;;2.50;;
8831;SDS011;4452;50.756;4.472;2022-11-04T00:50:22;17.33;;;3.03;;
8831;SDS011;4452;50.756;4.472;2022-11-04T00:52:47;15.95;;;3.53;;
8831;SDS011;4452;50.756;4.472;2022-11-04T00:55:13;18.27;;;3.55;;
8831;SDS011;4452;50.756;4.472;2022-11-04T00:57:38;12.68;;;2.88;;
8831;SDS011;4452;50.756;4.472;2022-11-04T01:00:04;11.93;;;2.78;;
8831;SDS011;4452;50.756;4.472;2022-11-04T01:02:31;13.70;;;2.67;;
8831;SDS011;4452;50.756;4.472;2022-11-04T01:04:56;10.73;;;2.60;;
8831;SDS011;4452;50.756;4.472;2022-11-04T01:07:22;8.25;;;2.28;;
8831;SDS011;4452;50.756;4.472;2022-11-04T01:09:48;11.15;;;2.58;;
8831;SDS011;4452;50.756;4.472;2022-11-04T01:12:13;11.80;;;2.67;;
8831;SDS011;4452;50.756;4.472;2022-11-04T01:14:39;17.58;;;4.75;;
8831;SDS011;4452;50.756;4.472;2022-11-04T01:17:05;18.63;;;2.95;;
8831;SDS011;4452;50.756;4.472;2022-11-04T01:19:30;10.85;;;2.70;;
8831;SDS011;4452;50.756;4.472;2022-11-04T01:21:56;15.35;;;2.50;;
8831;SDS011;4452;50.756;4.472;2022-11-04T01:24:21;15.43;;;2.88;;
8831;SDS011;4452;50.756;4.472;2022-11-04T01:26:47;7.50;;;2.47;;
8831;SDS011;4452;50.756;4.472;2022-11-04T01:29:13;15.20;;;3.08;;
8831;SDS011;4452;50.756;4.472;2022-11-04T01:31:39;9.52;;;2.50;;
8831;SDS011;4452;50.756;4.472;2022-11-04T01:34:04;15.68;;;2.97;;
8831;SDS011;4452;50.756;4.472;2022-11-04T01:36:30;14.45;;;2.50;;
8831;SDS011;4452;50.756;4.472;2022-11-04T01:38:56;13.00;;;2.50;;
8831;SDS011;4452;50.756;4.472;2022-11-04T01:41:23;10.57;;;2.40;;
8831;SDS011;4452;50.756;4.472;2022-11-04T01:46:26;19.40;;;3.47;;
8831;SDS011;4452;50.756;4.472;2022-11-04T01:51:53;10.00;;;2.38;;
8831;SDS011;4452;50.756;4.472;2022-11-04T01:54:23;18.30;;;2.65;;
8831;SDS011;4452;50.756;4.472;2022-11-04T01:56:49;16.98;;;3.10;;
8831;SDS011;4452;50.756;4.472;2022-11-04T01:59:20;12.75;;;2.22;;
8831;SDS011;4452;50.756;4.472;2022-11-04T02:01:52;7.43;;;1.63;;
8831;SDS011;4452;50.756;4.472;2022-11-04T02:04:18;12.80;;;2.75;;
8831;SDS011;4452;50.756;4.472;2022-11-04T02:06:57;19.30;;;2.70;;
8831;SDS011;4452;50.756;4.472;2022-11-04T02:09:25;28.88;;;3.88;;
8831;SDS011;4452;50.756;4.472;2022-11-04T02:11:53;16.08;;;3.40;;
8831;SDS011;4452;50.756;4.472;2022-11-04T02:14:38;14.82;;;3.60;;
8831;SDS011;4452;50.756;4.472;2022-11-04T02:42:31;19.35;;;5.03;;
8831;SDS011;4452;50.756;4.472;2022-11-04T02:45:20;17.10;;;5.03;;
8831;SDS011;4452;50.756;4.472;2022-11-04T02:48:13;17.63;;;5.35;;
8831;SDS011;4452;50.756;4.472;2022-11-04T02:56:42;15.38;;;4.63;;
8831;SDS011;4452;50.756;4.472;2022-11-04T02:59:17;20.70;;;5.50;;
8831;SDS011;4452;50.756;4.472;2022-11-04T03:01:49;24.48;;;5.85;;
8831;SDS011;4452;50.756;4.472;2022-11-04T03:04:19;20.35;;;5.45;;
8831;SDS011;4452;50.756;4.472;2022-11-04T03:06:52;21.88;;;5.75;;
8831;SDS011;4452;50.756;4.472;2022-11-04T03:09:19;15.43;;;5.13;;
8831;SDS011;4452;50.756;4.472;2022-11-04T03:11:47;19.63;;;5.25;;
8831;SDS011;4452;50.756;4.472;2022-11-04T03:14:22;19.55;;;4.80;;
8831;SDS011;4452;50.756;4.472;2022-11-04T03:16:54;14.73;;;4.70;;
8831;SDS011;4452;50.756;4.472;2022-11-04T03:22:14;16.40;;;4.70;;
8831;SDS011;4452;50.756;4.472;2022-11-04T03:24:42;26.98;;;5.30;;
8831;SDS011;4452;50.756;4.472;2022-11-04T03:27:13;19.85;;;5.10;;
8831;SDS011;4452;50.756;4.472;2022-11-04T03:34:59;18.00;;;5.03;;
8831;SDS011;4452;50.756;4.472;2022-11-04T03:37:24;23.17;;;5.57;;
8831;SDS011;4452;50.756;4.472;2022-11-04T03:39:50;16.50;;;5.30;;
8831;SDS011;4452;50.756;4.472;2022-11-04T03:42:16;13.27;;;4.90;;
8831;SDS011;4452;50.756;4.472;2022-11-04T03:44:47;13.13;;;5.85;;
8831;SDS011;4452;50.756;4.472;2022-11-04T03:47:14;19.50;;;5.22;;
8831;SDS011;4452;50.756;4.472;2022-11-04T03:49:42;23.88;;;5.07;;
8831;SDS011;4452;50.756;4.472;2022-11-04T03:52:12;16.73;;;5.03;;
8831;SDS011;4452;50.756;4.472;2022-11-04T03:54:38;15.75;;;4.55;;
8831;SDS011;4452;50.756;4.472;2022-11-04T04:00:07;16.70;;;4.20;;
8831;SDS011;4452;50.756;4.472;2022-11-04T04:02:40;13.77;;;4.38;;
8831;SDS011;4452;50.756;4.472;2022-11-04T04:10:36;16.00;;;4.15;;
8831;SDS011;4452;50.756;4.472;2022-11-04T04:13:24;18.92;;;4.22;;
8831;SDS011;4452;50.756;4.472;2022-11-04T04:16:00;22.23;;;4.57;;
8831;SDS011;4452;50.756;4.472;2022-11-04T04:18:36;14.65;;;4.53;;
8831;SDS011;4452;50.756;4.472;2022-11-04T04:21:07;17.98;;;4.50;;
8831;SDS011;4452;50.756;4.472;2022-11-04T04:23:36;16.63;;;4.20;;
8831;SDS011;4452;50.756;4.472;2022-11-04T04:26:22;10.38;;;4.05;;
8831;SDS011;4452;50.756;4.472;2022-11-04T04:29:08;11.15;;;4.07;;
8831;SDS011;4452;50.756;4.472;2022-11-04T04:31:35;22.38;;;4.60;;
8831;SDS011;4452;50.756;4.472;2022-11-04T04:34:19;18.48;;;4.32;;
8831;SDS011;4452;50.756;4.472;2022-11-04T04:39:46;13.02;;;4.32;;
8831;SDS011;4452;50.756;4.472;2022-11-04T04:42:39;14.27;;;3.80;;
8831;SDS011;4452;50.756;4.472;2022-11-04T04:45:51;13.98;;;4.10;;
8831;SDS011;4452;50.756;4.472;2022-11-04T04:48:19;18.63;;;4.30;;
8831;SDS011;4452;50.756;4.472;2022-11-04T04:50:46;21.52;;;4.90;;
8831;SDS011;4452;50.756;4.472;2022-11-04T04:53:15;18.88;;;4.43;;
8831;SDS011;4452;50.756;4.472;2022-11-04T04:55:41;24.15;;;4.38;;
8831;SDS011;4452;50.756;4.472;2022-11-04T04:58:06;18.75;;;4.18;;
8831;SDS011;4452;50.756;4.472;2022-11-04T05:00:32;19.15;;;5.38;;
8831;SDS011;4452;50.756;4.472;2022-11-04T05:02:58;17.20;;;4.53;;
8831;SDS011;4452;50.756;4.472;2022-11-04T05:05:24;13.75;;;4.57;;
8831;SDS011;4452;50.756;4.472;2022-11-04T05:07:50;19.85;;;4.57;;
8831;SDS011;4452;50.756;4.472;2022-11-04T05:10:16;20.55;;;4.65;;
8831;SDS011;4452;50.756;4.472;2022-11-04T05:12:42;17.85;;;4.70;;
8831;SDS011;4452;50.756;4.472;2022-11-04T05:15:27;16.02;;;4.50;;
8831;SDS011;4452;50.756;4.472;2022-11-04T05:17:54;21.58;;;4.80;;
8831;SDS011;4452;50.756;4.472;2022-11-04T05:20:22;12.38;;;4.32;;
8831;SDS011;4452;50.756;4.472;2022-11-04T05:22:47;14.05;;;4.53;;
8831;SDS011;4452;50.756;4.472;2022-11-04T05:25:13;11.55;;;4.53;;
8831;SDS011;4452;50.756;4.472;2022-11-04T05:27:38;22.02;;;4.38;;
8831;SDS011;4452;50.756;4.472;2022-11-04T05:30:04;11.60;;;4.15;;
8831;SDS011;4452;50.756;4.472;2022-11-04T05:32:31;16.85;;;4.88;;
8831;SDS011;4452;50.756;4.472;2022-11-04T05:34:57;14.23;;;4.40;;
8831;SDS011;4452;50.756;4.472;2022-11-04T05:37:23;22.27;;;4.40;;
8831;SDS011;4452;50.756;4.472;2022-11-04T05:39:49;19.08;;;4.50;;
8831;SDS011;4452;50.756;4.472;2022-11-04T05:42:15;19.55;;;4.63;;
8831;SDS011;4452;50.756;4.472;2022-11-04T05:44:40;18.13;;;4.50;;
8831;SDS011;4452;50.756;4.472;2022-11-04T05:47:06;16.52;;;4.50;;
8831;SDS011;4452;50.756;4.472;2022-11-04T05:49:32;21.10;;;4.55;;
8831;SDS011;4452;50.756;4.472;2022-11-04T05:51:57;14.70;;;3.92;;
8831;SDS011;4452;50.756;4.472;2022-11-04T05:54:23;20.00;;;4.85;;
8831;SDS011;4452;50.756;4.472;2022-11-04T05:56:49;15.32;;;4.10;;
8831;SDS011;4452;50.756;4.472;2022-11-04T05:59:15;14.63;;;4.10;;
8831;SDS011;4452;50.756;4.472;2022-11-04T06:01:40;15.68;;;4.28;;
8831;SDS011;4452;50.756;4.472;2022-11-04T06:04:08;16.30;;;4.18;;
8831;SDS011;4452;50.756;4.472;2022-11-04T06:06:40;17.63;;;4.57;;
8831;SDS011;4452;50.756;4.472;2022-11-04T06:09:06;18.40;;;4.50;;
8831;SDS011;4452;50.756;4.472;2022-11-04T06:11:32;22.88;;;4.63;;
8831;SDS011;4452;50.756;4.472;2022-11-04T06:13:59;16.38;;;4.10;;
8831;SDS011;4452;50.756;4.472;2022-11-04T06:16:25;14.95;;;4.30;;
8831;SDS011;4452;50.756;4.472;2022-11-04T06:18:51;20.80;;;4.80;;
8831;SDS011;4452;50.756;4.472;2022-11-04T06:26:16;12.73;;;4.90;;
8831;SDS011;4452;50.756;4.472;2022-11-04T06:28:42;17.73;;;4.50;;
8831;SDS011;4452;50.756;4.472;2022-11-04T06:31:08;17.70;;;5.03;;
8831;SDS011;4452;50.756;4.472;2022-11-04T06:33:35;17.73;;;4.30;;
8831;SDS011;4452;50.756;4.472;2022-11-04T06:36:02;19.15;;;4.55;;
8831;SDS011;4452;50.756;4.472;2022-11-04T06:38:30;24.15;;;4.50;;
8831;SDS011;4452;50.756;4.472;2022-11-04T06:40:57;20.52;;;5.40;;
8831;SDS011;4452;50.756;4.472;2022-11-04T06:43:26;25.30;;;6.93;;
8831;SDS011;4452;50.756;4.472;2022-11-04T06:45:52;21.30;;;5.22;;
8831;SDS011;4452;50.756;4.472;2022-11-04T06:48:22;23.33;;;5.25;;
8831;SDS011;4452;50.756;4.472;2022-11-04T06:50:48;24.63;;;4.72;;
8831;SDS011;4452;50.756;4.472;2022-11-04T06:53:14;22.38;;;4.72;;
8831;SDS011;4452;50.756;4.472;2022-11-04T06:55:39;19.17;;;5.53;;
8831;SDS011;4452;50.756;4.472;2022-11-04T06:58:05;23.45;;;5.78;;
8831;SDS011;4452;50.756;4.472;2022-11-04T07:00:30;26.40;;;5.03;;
8831;SDS011;4452;50.756;4.472;2022-11-04T07:02:56;16.17;;;5.35;;
8831;SDS011;4452;50.756;4.472;2022-11-04T07:05:21;10.20;;;4.82;;
8831;SDS011;4452;50.756;4.472;2022-11-04T07:07:47;16.23;;;5.07;;
8831;SDS011;4452;50.756;4.472;2022-11-04T07:10:13;22.30;;;5.50;;
8831;SDS011;4452;50.756;4.472;2022-11-04T07:12:39;20.25;;;5.68;;
8831;SDS011;4452;50.756;4.472;2022-11-04T07:15:04;23.88;;;6.05;;
8831;SDS011;4452;50.756;4.472;2022-11-04T07:17:30;21.48;;;5.65;;
8831;SDS011;4452;50.756;4.472;2022-11-04T07:19:56;23.95;;;6.25;;
8831;SDS011;4452;50.756;4.472;2022-11-04T07:22:21;21.38;;;6.00;;
8831;SDS011;4452;50.756;4.472;2022-11-04T07:24:47;23.13;;;6.47;;
8831;SDS011;4452;50.756;4.472;2022-11-04T07:27:13;17.17;;;6.05;;
8831;SDS011;4452;50.756;4.472;2022-11-04T07:29:39;20.92;;;6.10;;
8831;SDS011;4452;50.756;4.472;2022-11-04T07:32:06;18.15;;;5.55;;
8831;SDS011;4452;50.756;4.472;2022-11-04T07:34:37;24.45;;;6.03;;
8831;SDS011;4452;50.756;4.472;2022-11-04T07:37:05;21.55;;;5.90;;
8831;SDS011;4452;50.756;4.472;2022-11-04T07:39:33;17.80;;;4.97;;
8831;SDS011;4452;50.756;4.472;2022-11-04T07:41:59;19.65;;;5.55;;
8831;SDS011;4452;50.756;4.472;2022-11-04T07:44:24;20.00;;;5.63;;
8831;SDS011;4452;50.756;4.472;2022-11-04T07:46:50;18.23;;;4.82;;
8831;SDS011;4452;50.756;4.472;2022-11-04T07:49:16;19.35;;;4.82;;
8831;SDS011;4452;50.756;4.472;2022-11-04T07:51:41;20.63;;;4.70;;
8831;SDS011;4452;50.756;4.472;2022-11-04T07:54:07;23.95;;;5.25;;
8831;SDS011;4452;50.756;4.472;2022-11-04T07:56:32;30.55;;;5.43;;
8831;SDS011;4452;50.756;4.472;2022-11-04T07:58:58;21.98;;;5.85;;
8831;SDS011;4452;50.756;4.472;2022-11-04T08:01:24;16.27;;;4.55;;
8831;SDS011;4452;50.756;4.472;2022-11-04T08:03:50;21.50;;;5.50;;
8831;SDS011;4452;50.756;4.472;2022-11-04T08:06:16;11.10;;;4.53;;
8831;SDS011;4452;50.756;4.472;2022-11-04T08:08:43;22.67;;;5.03;;
8831;SDS011;4452;50.756;4.472;2022-11-04T08:11:10;16.90;;;5.15;;
8831;SDS011;4452;50.756;4.472;2022-11-04T08:13:38;18.08;;;5.43;;
8831;SDS011;4452;50.756;4.472;2022-11-04T08:16:04;16.10;;;5.97;;
8831;SDS011;4452;50.756;4.472;2022-11-04T08:18:33;21.48;;;5.57;;
8831;SDS011;4452;50.756;4.472;2022-11-04T08:20:59;12.70;;;5.45;;
8831;SDS011;4452;50.756;4.472;2022-11-04T08:23:26;11.75;;;4.90;;
8831;SDS011;4452;50.756;4.472;2022-11-04T08:25:52;16.40;;;5.25;;
8831;SDS011;4452;50.756;4.472;2022-11-04T08:28:18;16.00;;;5.85;;
8831;SDS011;4452;50.756;4.472;2022-11-04T08:30:54;25.42;;;5.80;;
8831;SDS011;4452;50.756;4.472;2022-11-04T08:33:20;21.75;;;6.05;;
8831;SDS011;4452;50.756;4.472;2022-11-04T08:35:45;13.65;;;5.65;;
8831;SDS011;4452;50.756;4.472;2022-11-04T08:38:11;14.50;;;6.03;;
8831;SDS011;4452;50.756;4.472;2022-11-04T08:40:37;20.35;;;6.68;;
8831;SDS011;4452;50.756;4.472;2022-11-04T08:43:03;19.80;;;8.27;;
8831;SDS011;4452;50.756;4.472;2022-11-04T08:45:28;23.58;;;6.72;;
8831;SDS011;4452;50.756;4.472;2022-11-04T08:47:54;25.83;;;6.95;;
8831;SDS011;4452;50.756;4.472;2022-11-04T08:50:20;19.20;;;7.25;;
8831;SDS011;4452;50.756;4.472;2022-11-04T08:52:51;20.80;;;7.43;;
8831;SDS011;4452;50.756;4.472;2022-11-04T08:55:17;18.80;;;7.25;;
8831;SDS011;4452;50.756;4.472;2022-11-04T08:57:43;25.50;;;8.10;;
8831;SDS011;4452;50.756;4.472;2022-11-04T09:00:09;23.45;;;7.85;;
8831;SDS011;4452;50.756;4.472;2022-11-04T09:02:35;24.13;;;8.52;;
8831;SDS011;4452;50.756;4.472;2022-11-04T09:05:01;27.90;;;8.48;;
8831;SDS011;4452;50.756;4.472;2022-11-04T09:07:27;24.63;;;7.78;;
8831;SDS011;4452;50.756;4.472;2022-11-04T09:09:53;17.33;;;8.05;;
8831;SDS011;4452;50.756;4.472;2022-11-04T09:12:19;22.10;;;8.02;;
8831;SDS011;4452;50.756;4.472;2022-11-04T09:14:45;19.05;;;7.18;;
8831;SDS011;4452;50.756;4.472;2022-11-04T09:17:11;16.00;;;7.38;;
8831;SDS011;4452;50.756;4.472;2022-11-04T09:19:36;25.30;;;7.20;;
8831;SDS011;4452;50.756;4.472;2022-11-04T09:22:02;17.83;;;6.75;;
8831;SDS011;4452;50.756;4.472;2022-11-04T09:24:27;18.88;;;7.07;;
8831;SDS011;4452;50.756;4.472;2022-11-04T09:26:53;18.10;;;6.82;;
8831;SDS011;4452;50.756;4.472;2022-11-04T09:29:19;25.70;;;6.50;;
8831;SDS011;4452;50.756;4.472;2022-11-04T09:31:45;18.58;;;7.00;;
8831;SDS011;4452;50.756;4.472;2022-11-04T09:34:10;16.80;;;6.10;;
8831;SDS011;4452;50.756;4.472;2022-11-04T09:36:36;17.92;;;6.03;;
8831;SDS011;4452;50.756;4.472;2022-11-04T09:39:02;22.17;;;7.65;;
8831;SDS011;4452;50.756;4.472;2022-11-04T09:46:51;21.75;;;7.32;;
8831;SDS011;4452;50.756;4.472;2022-11-04T09:49:21;19.13;;;7.38;;
8831;SDS011;4452;50.756;4.472;2022-11-04T09:51:49;19.17;;;7.20;;
8831;SDS011;4452;50.756;4.472;2022-11-04T09:54:23;18.05;;;6.30;;
8831;SDS011;4452;50.756;4.472;2022-11-04T09:59:24;17.00;;;5.65;;
8831;SDS011;4452;50.756;4.472;2022-11-04T10:05:00;17.02;;;5.57;;
8831;SDS011;4452;50.756;4.472;2022-11-04T10:07:59;14.15;;;5.13;;
8831;SDS011;4452;50.756;4.472;2022-11-04T10:10:45;22.20;;;6.20;;
8831;SDS011;4452;50.756;4.472;2022-11-04T10:13:26;14.73;;;6.30;;
8831;SDS011;4452;50.756;4.472;2022-11-04T10:18:58;16.63;;;5.88;;
8831;SDS011;4452;50.756;4.472;2022-11-04T10:21:34;13.65;;;5.20;;
8831;SDS011;4452;50.756;4.472;2022-11-04T10:27:07;13.20;;;5.38;;
8831;SDS011;4452;50.756;4.472;2022-11-04T10:29:43;12.70;;;5.45;;
8831;SDS011;4452;50.756;4.472;2022-11-04T10:34:48;37.45;;;12.23;;
8831;SDS011;4452;50.756;4.472;2022-11-04T10:37:51;30.40;;;10.80;;
8831;SDS011;4452;50.756;4.472;2022-11-04T10:40:22;29.70;;;8.18;;
8831;SDS011;4452;50.756;4.472;2022-11-04T10:42:53;14.98;;;6.90;;
8831;SDS011;4452;50.756;4.472;2022-11-04T10:45:25;16.13;;;6.30;;
8831;SDS011;4452;50.756;4.472;2022-11-04T10:48:01;21.88;;;6.93;;
8831;SDS011;4452;50.756;4.472;2022-11-04T10:53:10;24.13;;;7.55;;
8831;SDS011;4452;50.756;4.472;2022-11-04T10:55:46;18.08;;;6.82;;
8831;SDS011;4452;50.756;4.472;2022-11-04T11:01:26;23.85;;;6.90;;
8831;SDS011;4452;50.756;4.472;2022-11-04T11:03:54;24.35;;;7.53;;
8831;SDS011;4452;50.756;4.472;2022-11-04T11:06:30;26.17;;;7.97;;
8831;SDS011;4452;50.756;4.472;2022-11-04T11:09:20;21.75;;;7.43;;
8831;SDS011;4452;50.756;4.472;2022-11-04T11:16:57;28.00;;;7.75;;
8831;SDS011;4452;50.756;4.472;2022-11-04T11:19:55;22.20;;;7.93;;
8831;SDS011;4452;50.756;4.472;2022-11-04T11:27:54;28.77;;;9.80;;
8831;SDS011;4452;50.756;4.472;2022-11-04T11:35:28;25.88;;;9.68;;
8831;SDS011;4452;50.756;4.472;2022-11-04T11:38:12;25.50;;;9.43;;
8831;SDS011;4452;50.756;4.472;2022-11-04T11:40:43;25.98;;;9.38;;
8831;SDS011;4452;50.756;4.472;2022-11-04T11:45:51;28.95;;;8.88;;
8831;SDS011;4452;50.756;4.472;2022-11-04T11:51:04;23.38;;;8.18;;
8831;SDS011;4452;50.756;4.472;2022-11-04T11:53:30;20.48;;;7.75;;
8831;SDS011;4452;50.756;4.472;2022-11-04T11:56:34;21.75;;;7.80;;
8831;SDS011;4452;50.756;4.472;2022-11-04T12:01:41;20.40;;;7.82;;
8831;SDS011;4452;50.756;4.472;2022-11-04T12:04:14;21.13;;;7.38;;
8831;SDS011;4452;50.756;4.472;2022-11-04T12:20:21;22.90;;;8.10;;
8831;SDS011;4452;50.756;4.472;2022-11-04T12:23:16;22.65;;;8.30;;
8831;SDS011;4452;50.756;4.472;2022-11-04T12:37:04;17.90;;;9.20;;
8831;SDS011;4452;50.756;4.472;2022-11-04T12:47:49;19.67;;;10.05;;
8831;SDS011;4452;50.756;4.472;2022-11-04T12:50:22;28.67;;;11.07;;
8831;SDS011;4452;50.756;4.472;2022-11-04T13:04:16;20.58;;;10.27;;
8831;SDS011;4452;50.756;4.472;2022-11-04T13:07:14;20.17;;;9.48;;
8831;SDS011;4452;50.756;4.472;2022-11-04T13:09:51;17.85;;;9.50;;
8831;SDS011;4452;50.756;4.472;2022-11-04T13:12:20;21.17;;;8.73;;
8831;SDS011;4452;50.756;4.472;2022-11-04T13:17:34;13.63;;;8.68;;
8831;SDS011;4452;50.756;4.472;2022-11-04T13:22:37;16.15;;;7.75;;
8831;SDS011;4452;50.756;4.472;2022-11-04T13:25:08;19.20;;;8.00;;
8831;SDS011;4452;50.756;4.472;2022-11-04T13:27:40;11.68;;;7.15;;
8831;SDS011;4452;50.756;4.472;2022-11-04T13:30:25;24.20;;;8.10;;
8831;SDS011;4452;50.756;4.472;2022-11-04T13:33:20;19.13;;;9.75;;
8831;SDS011;4452;50.756;4.472;2022-11-04T13:38:45;16.13;;;7.93;;
8831;SDS011;4452;50.756;4.472;2022-11-04T13:41:57;21.83;;;7.85;;
8831;SDS011;4452;50.756;4.472;2022-11-04T13:44:35;18.70;;;7.38;;
8831;SDS011;4452;50.756;4.472;2022-11-04T13:47:04;19.55;;;7.68;;
8831;SDS011;4452;50.756;4.472;2022-11-04T13:49:37;20.10;;;8.70;;
8831;SDS011;4452;50.756;4.472;2022-11-04T13:52:04;16.25;;;7.97;;
8831;SDS011;4452;50.756;4.472;2022-11-04T13:54:34;13.30;;;7.57;;
8831;SDS011;4452;50.756;4.472;2022-11-04T13:57:10;16.13;;;7.43;;
8831;SDS011;4452;50.756;4.472;2022-11-04T13:59:39;15.60;;;7.70;;
8831;SDS011;4452;50.756;4.472;2022-11-04T14:04:43;14.90;;;8.77;;
8831;SDS011;4452;50.756;4.472;2022-11-04T14:07:11;17.25;;;9.10;;
8831;SDS011;4452;50.756;4.472;2022-11-04T14:14:45;17.75;;;10.05;;
8831;SDS011;4452;50.756;4.472;2022-11-04T14:22:47;15.48;;;10.95;;
8831;SDS011;4452;50.756;4.472;2022-11-04T14:25:37;16.73;;;9.82;;
8831;SDS011;4452;50.756;4.472;2022-11-04T14:30:35;20.38;;;8.35;;
8831;SDS011;4452;50.756;4.472;2022-11-04T14:33:24;15.20;;;8.48;;
8831;SDS011;4452;50.756;4.472;2022-11-04T14:46:54;13.38;;;6.28;;
8831;SDS011;4452;50.756;4.472;2022-11-04T14:52:02;10.73;;;4.63;;
8831;SDS011;4452;50.756;4.472;2022-11-04T14:54:29;10.68;;;4.88;;
8831;SDS011;4452;50.756;4.472;2022-11-04T14:57:17;4.90;;;3.33;;
8831;SDS011;4452;50.756;4.472;2022-11-04T14:59:45;8.25;;;3.55;;
8831;SDS011;4452;50.756;4.472;2022-11-04T15:02:12;10.57;;;3.22;;
8831;SDS011;4452;50.756;4.472;2022-11-04T15:05:45;2.15;;;1.95;;
8831;SDS011;4452;50.756;4.472;2022-11-04T15:07:50;3.90;;;1.70;;
8831;SDS011;4452;50.756;4.472;2022-11-04T15:10:17;3.05;;;1.63;;
8831;SDS011;4452;50.756;4.472;2022-11-04T15:12:46;4.80;;;1.80;;
8831;SDS011;4452;50.756;4.472;2022-11-04T15:18:07;2.03;;;1.70;;
8831;SDS011;4452;50.756;4.472;2022-11-04T15:23:13;2.20;;;1.17;;
8831;SDS011;4452;50.756;4.472;2022-11-04T15:25:46;3.58;;;1.60;;
8831;SDS011;4452;50.756;4.472;2022-11-04T15:28:20;2.28;;;1.38;;
8831;SDS011;4452;50.756;4.472;2022-11-04T15:31:31;1.70;;;1.60;;
8831;SDS011;4452;50.756;4.472;2022-11-04T15:33:41;3.63;;;1.63;;
8831;SDS011;4452;50.756;4.472;2022-11-04T15:36:10;5.22;;;2.05;;
8831;SDS011;4452;50.756;4.472;2022-11-04T15:38:52;4.05;;;1.80;;
8831;SDS011;4452;50.756;4.472;2022-11-04T15:41:25;3.95;;;1.85;;
8831;SDS011;4452;50.756;4.472;2022-11-04T15:44:13;8.02;;;1.77;;
8831;SDS011;4452;50.756;4.472;2022-11-04T15:46:48;4.88;;;1.20;;
8831;SDS011;4452;50.756;4.472;2022-11-04T15:49:28;3.40;;;1.35;;
8831;SDS011;4452;50.756;4.472;2022-11-04T15:51:59;3.03;;;1.20;;
8831;SDS011;4452;50.756;4.472;2022-11-04T15:54:30;2.10;;;1.40;;
8831;SDS011;4452;50.756;4.472;2022-11-04T15:57:04;2.50;;;1.20;;
8831;SDS011;4452;50.756;4.472;2022-11-04T15:59:44;2.53;;;1.33;;
8831;SDS011;4452;50.756;4.472;2022-11-04T16:02:19;2.50;;;1.27;;
8831;SDS011;4452;50.756;4.472;2022-11-04T16:05:00;2.15;;;1.08;;
8831;SDS011;4452;50.756;4.472;2022-11-04T16:07:33;5.18;;;1.63;;
8831;SDS011;4452;50.756;4.472;2022-11-04T16:10:02;2.83;;;1.40;;
8831;SDS011;4452;50.756;4.472;2022-11-04T16:12:58;3.45;;;1.30;;
8831;SDS011;4452;50.756;4.472;2022-11-04T16:15:47;2.30;;;1.13;;
8831;SDS011;4452;50.756;4.472;2022-11-04T16:20:54;2.33;;;1.38;;
8831;SDS011;4452;50.756;4.472;2022-11-04T16:23:22;2.80;;;1.63;;
8831;SDS011;4452;50.756;4.472;2022-11-04T16:25:55;1.92;;;1.60;;
8831;SDS011;4452;50.756;4.472;2022-11-04T16:28:27;2.97;;;1.73;;
8831;SDS011;4452;50.756;4.472;2022-11-04T16:30:59;4.10;;;2.10;;
8831;SDS011;4452;50.756;4.472;2022-11-04T16:33:26;3.53;;;2.00;;
8831;SDS011;4452;50.756;4.472;2022-11-04T16:35:55;7.93;;;2.92;;
8831;SDS011;4452;50.756;4.472;2022-11-04T16:38:29;6.07;;;2.67;;
8831;SDS011;4452;50.756;4.472;2022-11-04T16:40:55;5.65;;;2.22;;
8831;SDS011;4452;50.756;4.472;2022-11-04T16:43:21;5.63;;;2.50;;
8831;SDS011;4452;50.756;4.472;2022-11-04T16:45:47;7.15;;;2.70;;
8831;SDS011;4452;50.756;4.472;2022-11-04T16:48:17;10.40;;;3.65;;
8831;SDS011;4452;50.756;4.472;2022-11-04T16:50:44;8.25;;;4.30;;
8831;SDS011;4452;50.756;4.472;2022-11-04T16:53:10;6.15;;;3.08;;
8831;SDS011;4452;50.756;4.472;2022-11-04T16:55:40;5.47;;;3.20;;
8831;SDS011;4452;50.756;4.472;2022-11-04T16:58:17;7.45;;;3.60;;
8831;SDS011;4452;50.756;4.472;2022-11-04T17:00:43;7.97;;;4.10;;
8831;SDS011;4452;50.756;4.472;2022-11-04T17:03:16;11.00;;;4.88;;
8831;SDS011;4452;50.756;4.472;2022-11-04T17:05:47;8.45;;;4.13;;
8831;SDS011;4452;50.756;4.472;2022-11-04T17:08:20;10.80;;;4.63;;
8831;SDS011;4452;50.756;4.472;2022-11-04T17:10:50;11.07;;;4.85;;
8831;SDS011;4452;50.756;4.472;2022-11-04T17:13:16;10.95;;;5.40;;
8831;SDS011;4452;50.756;4.472;2022-11-04T17:15:42;9.07;;;5.68;;
8831;SDS011;4452;50.756;4.472;2022-11-04T17:18:08;9.07;;;5.60;;
8831;SDS011;4452;50.756;4.472;2022-11-04T17:20:39;10.60;;;5.10;;
8831;SDS011;4452;50.756;4.472;2022-11-04T17:23:05;14.80;;;5.60;;
8831;SDS011;4452;50.756;4.472;2022-11-04T17:25:31;9.68;;;5.85;;
8831;SDS011;4452;50.756;4.472;2022-11-04T17:27:57;15.43;;;6.70;;
8831;SDS011;4452;50.756;4.472;2022-11-04T17:30:23;11.60;;;5.47;;
8831;SDS011;4452;50.756;4.472;2022-11-04T17:32:49;10.88;;;2.78;;
8831;SDS011;4452;50.756;4.472;2022-11-04T17:35:15;8.73;;;3.35;;
8831;SDS011;4452;50.756;4.472;2022-11-04T17:37:41;5.50;;;2.33;;
8831;SDS011;4452;50.756;4.472;2022-11-04T17:40:07;9.18;;;2.55;;
8831;SDS011;4452;50.756;4.472;2022-11-04T17:42:39;10.02;;;2.70;;
8831;SDS011;4452;50.756;4.472;2022-11-04T17:45:23;3.38;;;2.58;;
8831;SDS011;4452;50.756;4.472;2022-11-04T17:47:49;8.85;;;3.30;;
8831;SDS011;4452;50.756;4.472;2022-11-04T17:50:14;11.60;;;3.47;;
8831;SDS011;4452;50.756;4.472;2022-11-04T17:52:40;6.63;;;3.08;;
8831;SDS011;4452;50.756;4.472;2022-11-04T17:55:09;5.55;;;3.15;;
8831;SDS011;4452;50.756;4.472;2022-11-04T17:57:35;8.55;;;3.85;;
8831;SDS011;4452;50.756;4.472;2022-11-04T18:00:01;12.90;;;4.90;;
8831;SDS011;4452;50.756;4.472;2022-11-04T18:02:29;7.85;;;4.32;;
8831;SDS011;4452;50.756;4.472;2022-11-04T18:04:56;12.38;;;4.70;;
8831;SDS011;4452;50.756;4.472;2022-11-04T18:07:21;9.15;;;6.00;;
8831;SDS011;4452;50.756;4.472;2022-11-04T18:09:47;16.02;;;5.68;;
8831;SDS011;4452;50.756;4.472;2022-11-04T18:12:13;11.82;;;5.05;;
8831;SDS011;4452;50.756;4.472;2022-11-04T18:14:57;12.70;;;5.18;;
8831;SDS011;4452;50.756;4.472;2022-11-04T18:17:22;13.27;;;5.28;;
8831;SDS011;4452;50.756;4.472;2022-11-04T18:19:49;16.10;;;5.40;;
8831;SDS011;4452;50.756;4.472;2022-11-04T18:22:15;10.80;;;5.28;;
8831;SDS011;4452;50.756;4.472;2022-11-04T18:24:41;17.35;;;5.50;;
8831;SDS011;4452;50.756;4.472;2022-11-04T18:27:07;9.30;;;5.20;;
8831;SDS011;4452;50.756;4.472;2022-11-04T18:29:32;8.55;;;4.95;;
8831;SDS011;4452;50.756;4.472;2022-11-04T18:31:58;12.57;;;5.80;;
8831;SDS011;4452;50.756;4.472;2022-11-04T18:34:25;15.88;;;6.35;;
8831;SDS011;4452;50.756;4.472;2022-11-04T18:36:50;12.02;;;6.82;;
8831;SDS011;4452;50.756;4.472;2022-11-04T18:39:17;10.77;;;6.25;;
8831;SDS011;4452;50.756;4.472;2022-11-04T18:41:43;9.48;;;6.38;;
8831;SDS011;4452;50.756;4.472;2022-11-04T18:44:14;11.48;;;6.57;;
8831;SDS011;4452;50.756;4.472;2022-11-04T18:46:41;16.35;;;7.30;;